Map

Track Data

SID SEASON NUMBER BASIN SUBBASIN NAME ISO_TIME NATURE LAT LON WMO_WIND WMO_PRES WMO_AGENCY TRACK_TYPE DIST2LAND LANDFALL IFLAG USA_AGENCY USA_ATCF_ID USA_LAT USA_LON USA_RECORD USA_STATUS USA_WIND USA_PRES USA_SSHS USA_R34_NE USA_R34_SE USA_R34_SW USA_R34_NW USA_R50_NE USA_R50_SE USA_R50_SW USA_R50_NW USA_R64_NE USA_R64_SE USA_R64_SW USA_R64_NW USA_POCI USA_ROCI USA_RMW USA_EYE TOKYO_LAT TOKYO_LON TOKYO_GRADE TOKYO_WIND TOKYO_PRES TOKYO_R50_DIR TOKYO_R50_LONG TOKYO_R50_SHORT TOKYO_R30_DIR TOKYO_R30_LONG TOKYO_R30_SHORT TOKYO_LAND CMA_LAT CMA_LON CMA_CAT CMA_WIND CMA_PRES HKO_LAT HKO_LON HKO_CAT HKO_WIND HKO_PRES NEWDELHI_LAT NEWDELHI_LON NEWDELHI_GRADE NEWDELHI_WIND NEWDELHI_PRES NEWDELHI_CI NEWDELHI_DP NEWDELHI_POCI REUNION_LAT REUNION_LON REUNION_TYPE REUNION_WIND REUNION_PRES REUNION_TNUM REUNION_CI REUNION_RMW REUNION_R34_NE REUNION_R34_SE REUNION_R34_SW REUNION_R34_NW REUNION_R50_NE REUNION_R50_SE REUNION_R50_SW REUNION_R50_NW REUNION_R64_NE REUNION_R64_SE REUNION_R64_SW REUNION_R64_NW BOM_LAT BOM_LON BOM_TYPE BOM_WIND BOM_PRES BOM_TNUM BOM_CI BOM_RMW BOM_R34_NE BOM_R34_SE BOM_R34_SW BOM_R34_NW BOM_R50_NE BOM_R50_SE BOM_R50_SW BOM_R50_NW BOM_R64_NE BOM_R64_SE BOM_R64_SW BOM_R64_NW BOM_ROCI BOM_POCI BOM_EYE BOM_POS_METHOD BOM_PRES_METHOD NADI_LAT NADI_LON NADI_CAT NADI_WIND NADI_PRES WELLINGTON_LAT WELLINGTON_LON WELLINGTON_WIND WELLINGTON_PRES DS824_LAT DS824_LON DS824_STAGE DS824_WIND DS824_PRES TD9636_LAT TD9636_LON TD9636_STAGE TD9636_WIND TD9636_PRES TD9635_LAT TD9635_LON TD9635_WIND TD9635_PRES TD9635_ROCI NEUMANN_LAT NEUMANN_LON NEUMANN_CLASS NEUMANN_WIND NEUMANN_PRES MLC_LAT MLC_LON MLC_CLASS MLC_WIND MLC_PRES USA_GUST BOM_GUST BOM_GUST_PER REUNION_GUST REUNION_GUST_PER USA_SEAHGT USA_SEARAD_NE USA_SEARAD_SE USA_SEARAD_SW USA_SEARAD_NW STORM_SPEED STORM_DIR
1941252N14133 1941 55 WP MM NOT_NAMED 1941-09-09 00:00:00 NR 14.0000 133.100 main 847 759 __________O___ -1 14.0000 133.100 3 18 284
1941252N14133 1941 55 WP MM NOT_NAMED 1941-09-09 03:00:00 NR 14.2210 132.178 main 759 674 __________P___ -1 14.2210 132.178 3 18 284
1941252N14133 1941 55 WP MM NOT_NAMED 1941-09-09 06:00:00 NR 14.4319 131.295 main 674 604 __________P___ -1 14.4319 131.295 3 17 284
1941252N14133 1941 55 WP MM NOT_NAMED 1941-09-09 09:00:00 NR 14.6268 130.488 main 604 548 __________P___ -1 14.6268 130.488 3 15 284
1941252N14133 1941 55 WP MM NOT_NAMED 1941-09-09 12:00:00 NR 14.8000 129.800 main 548 510 __________O___ -1 14.8000 129.800 4 12 285
1941252N14133 1941 55 WP MM NOT_NAMED 1941-09-09 15:00:00 NR 14.9485 129.252 main 510 482 __________P___ -1 14.9485 129.252 4 10 286
1941252N14133 1941 55 WP MM NOT_NAMED 1941-09-09 18:00:00 NR 15.0772 128.797 main 482 454 __________P___ -1 15.0772 128.797 4 9 286
1941252N14133 1941 55 WP MM NOT_NAMED 1941-09-09 21:00:00 NR 15.1925 128.368 main 454 408 __________P___ -1 15.1925 128.368 4 9 284
1941252N14133 1941 55 WP MM NOT_NAMED 1941-09-10 00:00:00 NR 15.3000 127.900 main 408 354 __________O___ -1 15.3000 127.900 4 11 281
1941252N14133 1941 55 WP MM NOT_NAMED 1941-09-10 03:00:00 NR 15.4035 127.284 main 354 305 __________P___ -1 15.4035 127.284 4 12 279
1941252N14133 1941 55 WP MM NOT_NAMED 1941-09-10 06:00:00 NR 15.5006 126.622 main 296 255 __________P___ -1 15.5006 126.622 4 13 279
1941252N14133 1941 55 WP MM NOT_NAMED 1941-09-10 09:00:00 NR 15.5972 125.949 main 248 218 __________P___ -1 15.5972 125.949 4 13 279
1941252N14133 1941 55 WP MM NOT_NAMED 1941-09-10 12:00:00 NR 15.7000 125.300 main 218 206 __________O___ -1 15.7000 125.300 4 12 281
1941252N14133 1941 55 WP MM NOT_NAMED 1941-09-10 15:00:00 NR 15.8297 124.689 main 206 198 __________P___ -1 15.8297 124.689 4 12 283
1941252N14133 1941 55 WP MM NOT_NAMED 1941-09-10 18:00:00 NR 15.9647 124.110 main 198 147 __________P___ -1 15.9647 124.110 4 11 284
1941252N14133 1941 55 WP MM NOT_NAMED 1941-09-10 21:00:00 NR 16.0924 123.577 main 147 96 __________P___ -1 16.0924 123.577 4 10 284
1941252N14133 1941 55 WP MM NOT_NAMED 1941-09-11 00:00:00 NR 16.2000 123.100 main 96 53 __________O___ -1 16.2000 123.100 4 9 282
1941252N14133 1941 55 WP MM NOT_NAMED 1941-09-11 03:00:00 NR 16.2667 122.692 main 53 21 __________P___ -1 16.2667 122.692 4 7 279
1941252N14133 1941 55 WP MM NOT_NAMED 1941-09-11 06:00:00 NR 16.3141 122.339 main 10 0 __________P___ -1 16.3141 122.339 4 7 278
1941252N14133 1941 55 WP MM NOT_NAMED 1941-09-11 09:00:00 NR 16.3544 122.017 main 0 0 __________P___ -1 16.3544 122.017 4 6 278
1941252N14133 1941 55 WP MM NOT_NAMED 1941-09-11 12:00:00 NR 16.4000 121.700 main 0 0 __________O___ -1 16.4000 121.700 4 7 279
1941252N14133 1941 55 WP MM NOT_NAMED 1941-09-11 15:00:00 NR 16.4638 121.326 main 0 0 __________P___ -1 16.4638 121.326 4 7 281
1941252N14133 1941 55 WP MM NOT_NAMED 1941-09-11 18:00:00 NR 16.5351 120.955 main 0 0 __________P___ -1 16.5351 120.955 4 7 282
1941252N14133 1941 55 WP MM NOT_NAMED 1941-09-11 21:00:00 NR 16.6139 120.607 main 0 0 __________P___ -1 16.6139 120.607 4 6 285
1941252N14133 1941 55 WP MM NOT_NAMED 1941-09-12 00:00:00 NR 16.7000 120.300 main 10 10 __________O___ -1 16.7000 120.300 4 6 288
1941252N14133 1941 55 WP MM NOT_NAMED 1941-09-12 03:00:00 NR 16.7884 120.061 main 30 30 __________P___ -1 16.7884 120.061 4 5 294
1941252N14133 1941 55 WP MM NOT_NAMED 1941-09-12 06:00:00 NR 16.8845 119.862 main 54 54 __________P___ -1 16.8845 119.862 4 4 299
1941252N14133 1941 55 WP MM NOT_NAMED 1941-09-12 09:00:00 NR 16.9885 119.683 main 77 77 __________P___ -1 16.9885 119.683 4 4 302
1941252N14133 1941 55 WP MM NOT_NAMED 1941-09-12 12:00:00 NR 17.1000 119.500 main 95 95 __________O___ -1 17.1000 119.500 4 5 301
1941252N14133 1941 55 WP MM NOT_NAMED 1941-09-12 15:00:00 NR 17.2260 119.274 main 113 113 __________P___ -1 17.2260 119.274 4 5 301
1941252N14133 1941 55 WP MM NOT_NAMED 1941-09-12 18:00:00 NR 17.3575 119.043 main 139 139 __________P___ -1 17.3575 119.043 4 5 301
1941252N14133 1941 55 WP MM NOT_NAMED 1941-09-12 21:00:00 NR 17.4853 118.815 main 159 159 __________P___ -1 17.4853 118.815 4 5 300
1941252N14133 1941 55 WP MM NOT_NAMED 1941-09-13 00:00:00 NR 17.6000 118.600 main 180 180 __________O___ -1 17.6000 118.600 4 4 297
1941252N14133 1941 55 WP MM NOT_NAMED 1941-09-13 03:00:00 NR 17.6770 118.414 main 201 201 __________P___ -1 17.6770 118.414 4 4 293
1941252N14133 1941 55 WP MM NOT_NAMED 1941-09-13 06:00:00 NR 17.7423 118.242 main 222 222 __________P___ -1 17.7423 118.242 4 4 292
1941252N14133 1941 55 WP MM NOT_NAMED 1941-09-13 09:00:00 NR 17.8114 118.074 main 234 234 __________P___ -1 17.8114 118.074 4 4 296
1941252N14133 1941 55 WP MM NOT_NAMED 1941-09-13 12:00:00 NR 17.9000 117.900 main 256 256 __________O___ -1 17.9000 117.900 4 4 300
1941252N14133 1941 55 WP MM NOT_NAMED 1941-09-13 15:00:00 NR 18.0203 117.699 main 278 278 __________P___ -1 18.0203 117.699 4 5 304
1941252N14133 1941 55 WP MM NOT_NAMED 1941-09-13 18:00:00 NR 18.1626 117.493 main 303 303 __________P___ -1 18.1626 117.493 4 5 308
1941252N14133 1941 55 WP MM NOT_NAMED 1941-09-13 21:00:00 NR 18.3235 117.290 main 326 326 __________P___ -1 18.3235 117.290 4 5 312
1941252N14133 1941 55 WP MM NOT_NAMED 1941-09-14 00:00:00 NR 18.5000 117.100 main 353 353 __________O___ -1 18.5000 117.100 4 5 316
1941252N14133 1941 55 WP MM NOT_NAMED 1941-09-14 03:00:00 NR 18.6774 116.931 main 379 379 __________P___ -1 18.6774 116.931 4 5 320
1941252N14133 1941 55 WP MM NOT_NAMED 1941-09-14 06:00:00 NR 18.8699 116.777 main 397 397 __________P___ -1 18.8699 116.777 4 5 325
1941252N14133 1941 55 WP MM NOT_NAMED 1941-09-14 09:00:00 NR 19.0774 116.635 main 411 387 __________P___ -1 19.0774 116.635 4 5 329
1941252N14133 1941 55 WP MM NOT_NAMED 1941-09-14 12:00:00 NR 19.3000 116.500 main 387 363 __________O___ -1 19.3000 116.500 4 5 331
1941252N14133 1941 55 WP MM NOT_NAMED 1941-09-14 15:00:00 NR 19.5315 116.368 main 363 326 __________P___ -1 19.5315 116.368 4 5 333
1941252N14133 1941 55 WP MM NOT_NAMED 1941-09-14 18:00:00 NR 19.7774 116.242 main 326 303 __________P___ -1 19.7774 116.242 4 6 335
1941252N14133 1941 55 WP MM NOT_NAMED 1941-09-14 21:00:00 NR 20.0346 116.121 main 303 269 __________P___ -1 20.0346 116.121 4 6 337
1941252N14133 1941 55 WP MM NOT_NAMED 1941-09-15 00:00:00 NR 20.3000 116.000 main 269 235 __________O___ -1 20.3000 116.000 4 6 338
1941252N14133 1941 55 WP MM NOT_NAMED 1941-09-15 03:00:00 NR 20.5758 115.887 main 235 211 __________P___ -1 20.5758 115.887 4 6 339
1941252N14133 1941 55 WP MM NOT_NAMED 1941-09-15 06:00:00 NR 20.8573 115.772 main 201 176 __________P___ -1 20.8573 115.772 4 6 338
1941252N14133 1941 55 WP MM NOT_NAMED 1941-09-15 09:00:00 NR 21.1352 115.646 main 172 137 __________P___ -1 21.1352 115.646 4 6 335
1941252N14133 1941 55 WP MM NOT_NAMED 1941-09-15 12:00:00 NR 21.4000 115.500 main 137 108 __________O___ -1 21.4000 115.500 4 6 330
1941252N14133 1941 55 WP MM NOT_NAMED 1941-09-15 15:00:00 NR 21.6449 115.327 main 108 70 __________P___ -1 21.6449 115.327 4 6 324
1941252N14133 1941 55 WP MM NOT_NAMED 1941-09-15 18:00:00 NR 21.8728 115.131 main 70 44 __________P___ -1 21.8728 115.131 4 6 320
1941252N14133 1941 55 WP MM NOT_NAMED 1941-09-15 21:00:00 NR 22.0893 114.919 main 44 24 __________P___ -1 22.0893 114.919 4 6 317
1941252N14133 1941 55 WP MM NOT_NAMED 1941-09-16 00:00:00 NR 22.3000 114.700 main 24 __________O___ -1 22.3000 114.700 4 6 316

Digital Typhoon Data and Search

About IBTrACS Database

This database is a web-friendly format of International Best Track Archive for Climate Stewardship (IBTrACS), a global best track data archive curated by NOAA dating back to 1842.

Updated: 2021-12-08